Time;durP1;ratioP1;P1;durP2;ratioP2;P2;SDS_P1;SDS_P2;PMS_P1;PMS_P2;Temp;Humidity;BMP_temperature;BMP_pressure;BME280_temperature;BME280_humidity;BME280_pressure;Samples;Min_cycle;Max_cycle;Signal;HPM_P1;HPM_P2
2021/12/02 00:00:44;;;;;;;1.60;1.10;;;;;;;;;;5030521;28;20029;-76
2021/12/02 00:03:10;;;;;;;2.85;1.23;;;;;;;;;;5026113;28;20408;-72
2021/12/02 00:05:36;;;;;;;4.97;1.20;;;;;;;;;;5031119;28;20115;-72
2021/12/02 00:08:03;;;;;;;3.17;1.23;;;;;;;;;;5031351;28;20029;-78
2021/12/02 00:10:31;;;;;;;1.23;1.10;;;;;;;;;;5035872;28;20037;-72
2021/12/02 00:12:58;;;;;;;2.60;1.10;;;;;;;;;;5034876;28;20030;-72
2021/12/02 00:15:28;;;;;;;4.60;1.25;;;;;;;;;;5035757;28;20021;-72
2021/12/02 00:21:05;;;;;;;2.72;1.60;;;;;;;;;;5046129;28;20036;-73
2021/12/02 00:23:38;;;;;;;2.20;1.10;;;;;;;;;;5040718;28;20037;-73
2021/12/02 00:26:08;;;;;;;3.28;0.88;;;;;;;;;;5035254;28;20132;-72
2021/12/02 00:28:37;;;;;;;5.15;1.27;;;;;;;;;;5033876;28;20029;-72
2021/12/02 00:31:03;;;;;;;2.30;0.98;;;;;;;;;;5033401;28;20026;-72
2021/12/02 00:33:31;;;;;;;1.90;1.05;;;;;;;;;;5033170;28;20036;-72
2021/12/02 00:35:57;;;;;;;2.80;1.00;;;;;;;;;;5035210;28;20021;-72
2021/12/02 00:38:24;;;;;;;1.38;1.08;;;;;;;;;;5033289;28;20056;-72
2021/12/02 00:40:51;;;;;;;2.25;1.23;;;;;;;;;;5039440;28;20033;-73
2021/12/02 00:43:18;;;;;;;1.50;0.90;;;;;;;;;;5031599;28;20029;-73
2021/12/02 00:45:44;;;;;;;5.20;1.33;;;;;;;;;;5032795;28;20983;-72
2021/12/02 00:48:12;;;;;;;6.25;1.63;;;;;;;;;;5032970;28;20056;-72
2021/12/02 00:50:39;;;;;;;4.10;1.40;;;;;;;;;;5038118;28;20025;-72
2021/12/02 00:53:07;;;;;;;2.47;1.15;;;;;;;;;;5035378;28;20091;-73
2021/12/02 00:55:36;;;;;;;2.67;1.25;;;;;;;;;;5031588;28;20091;-73
2021/12/02 00:58:03;;;;;;;3.05;1.58;;;;;;;;;;5034532;28;20494;-73
2021/12/02 01:00:30;;;;;;;2.38;1.25;;;;;;;;;;5038130;28;20051;-73
2021/12/02 01:02:58;;;;;;;2.25;1.20;;;;;;;;;;5031647;28;20129;-72
2021/12/02 01:05:25;;;;;;;2.20;1.33;;;;;;;;;;5038856;28;20028;-72
2021/12/02 01:07:51;;;;;;;2.05;1.17;;;;;;;;;;5032075;28;20065;-73
2021/12/02 01:10:19;;;;;;;2.95;1.27;;;;;;;;;;5034319;28;20084;-74
2021/12/02 01:12:46;;;;;;;1.67;1.13;;;;;;;;;;5031499;28;20021;-73
2021/12/02 01:15:13;;;;;;;2.13;1.13;;;;;;;;;;5037167;28;20372;-72
2021/12/02 01:17:40;;;;;;;2.33;1.10;;;;;;;;;;5029794;28;20496;-73
2021/12/02 01:20:07;;;;;;;3.67;1.17;;;;;;;;;;5033684;28;20079;-73
2021/12/02 01:22:36;;;;;;;1.13;0.85;;;;;;;;;;5033090;28;20029;-73
2021/12/02 01:25:03;;;;;;;4.43;1.20;;;;;;;;;;5033111;28;20045;-73
2021/12/02 01:27:29;;;;;;;4.35;1.75;;;;;;;;;;5032281;28;20048;-72
2021/12/02 01:29:56;;;;;;;1.65;1.00;;;;;;;;;;5031660;28;20040;-72
2021/12/02 01:32:23;;;;;;;3.22;1.15;;;;;;;;;;5033664;28;20025;-72
2021/12/02 01:34:50;;;;;;;2.80;1.38;;;;;;;;;;5034507;28;20461;-72
2021/12/02 01:37:18;;;;;;;1.80;1.30;;;;;;;;;;5034437;28;20560;-73
2021/12/02 01:39:44;;;;;;;3.33;1.30;;;;;;;;;;5029742;28;20425;-74
2021/12/02 01:42:15;;;;;;;4.45;1.20;;;;;;;;;;5031502;28;20057;-73
2021/12/02 01:44:42;;;;;;;3.28;1.23;;;;;;;;;;5033920;28;20037;-72
2021/12/02 01:47:12;;;;;;;2.05;1.00;;;;;;;;;;5033409;28;20033;-72
2021/12/02 01:49:41;;;;;;;2.65;1.30;;;;;;;;;;5034481;28;20708;-72
2021/12/02 01:52:10;;;;;;;1.83;1.13;;;;;;;;;;5032119;28;20881;-72
2021/12/02 01:54:38;;;;;;;5.60;1.40;;;;;;;;;;5033752;28;20029;-72
2021/12/02 01:57:09;;;;;;;1.70;1.20;;;;;;;;;;5031415;28;20025;-73
2021/12/02 01:59:37;;;;;;;2.30;0.95;;;;;;;;;;5037363;28;20060;-72
2021/12/02 02:02:09;;;;;;;3.08;1.27;;;;;;;;;;5029775;28;20029;-73
2021/12/02 02:04:35;;;;;;;2.97;1.20;;;;;;;;;;5032657;28;20049;-72
2021/12/02 02:07:02;;;;;;;1.92;1.20;;;;;;;;;;5032064;28;20469;-73
2021/12/02 02:09:31;;;;;;;3.70;1.58;;;;;;;;;;5029929;28;20382;-72
2021/12/02 02:11:58;;;;;;;2.33;1.15;;;;;;;;;;5036940;28;20021;-73
2021/12/02 02:14:25;;;;;;;3.60;1.83;;;;;;;;;;5033595;28;20888;-72
2021/12/02 02:16:52;;;;;;;3.83;1.20;;;;;;;;;;5031330;28;20396;-72
2021/12/02 02:19:18;;;;;;;5.65;1.48;;;;;;;;;;5026051;28;20030;-73
2021/12/02 02:21:45;;;;;;;1.75;1.10;;;;;;;;;;5033086;28;20030;-73
2021/12/02 02:24:13;;;;;;;4.18;1.65;;;;;;;;;;5036299;28;20076;-76
2021/12/02 02:26:40;;;;;;;2.80;1.10;;;;;;;;;;5031289;28;20087;-73
2021/12/02 02:29:07;;;;;;;2.35;1.10;;;;;;;;;;5034633;28;20029;-73
2021/12/02 02:31:34;;;;;;;3.38;1.60;;;;;;;;;;5032310;28;20032;-73
2021/12/02 02:34:01;;;;;;;3.75;1.60;;;;;;;;;;5034613;28;20125;-72
2021/12/02 02:36:32;;;;;;;5.88;2.20;;;;;;;;;;5028342;28;20091;-73
2021/12/02 02:38:59;;;;;;;3.33;1.30;;;;;;;;;;5035950;28;20025;-72
2021/12/02 02:41:29;;;;;;;3.08;1.33;;;;;;;;;;5032361;28;20030;-73
2021/12/02 02:43:58;;;;;;;5.25;1.45;;;;;;;;;;5032651;28;20086;-73
2021/12/02 02:46:26;;;;;;;4.47;1.30;;;;;;;;;;5032935;28;20047;-73
2021/12/02 02:48:52;;;;;;;3.67;1.40;;;;;;;;;;5035041;28;20475;-73
2021/12/02 02:51:19;;;;;;;2.80;1.55;;;;;;;;;;5034202;28;20034;-73
2021/12/02 02:53:50;;;;;;;5.40;1.60;;;;;;;;;;5037485;28;20029;-73
2021/12/02 02:56:18;;;;;;;5.05;1.33;;;;;;;;;;5034108;28;20416;-73
2021/12/02 03:01:34;;;;;;;5.55;1.48;;;;;;;;;;5038124;28;20028;-72
2021/12/02 03:09:01;;;;;;;4.50;1.30;;;;;;;;;;5039479;28;20120;-77
2021/12/02 03:11:37;;;;;;;7.32;1.50;;;;;;;;;;5036740;28;20055;-78
2021/12/02 03:14:10;;;;;;;6.07;1.52;;;;;;;;;;5038815;28;20014;-75
2021/12/02 03:16:43;;;;;;;13.07;1.75;;;;;;;;;;5036824;28;20465;-77
2021/12/02 03:19:10;;;;;;;9.57;2.17;;;;;;;;;;5035430;28;20029;-78
2021/12/02 03:21:36;;;;;;;6.18;1.70;;;;;;;;;;5037156;28;20060;-74
2021/12/02 03:24:03;;;;;;;6.40;1.67;;;;;;;;;;5037862;28;20037;-78
2021/12/02 03:26:30;;;;;;;8.85;1.90;;;;;;;;;;5038077;28;20021;-77
2021/12/02 03:28:56;;;;;;;8.05;1.95;;;;;;;;;;5036700;28;20094;-78
2021/12/02 03:31:22;;;;;;;11.38;2.33;;;;;;;;;;5036120;28;20056;-74
2021/12/02 03:33:49;;;;;;;5.13;1.50;;;;;;;;;;5030587;28;20437;-76
2021/12/02 03:36:16;;;;;;;8.38;1.92;;;;;;;;;;5035069;28;20025;-74
2021/12/02 03:38:43;;;;;;;9.23;2.25;;;;;;;;;;5032014;28;20024;-75
2021/12/02 03:41:09;;;;;;;14.52;1.98;;;;;;;;;;5040026;28;20029;-77
2021/12/02 03:43:36;;;;;;;7.60;1.98;;;;;;;;;;5035842;28;20588;-77
2021/12/02 03:46:02;;;;;;;12.88;2.30;;;;;;;;;;5034058;28;20033;-77
2021/12/02 03:48:28;;;;;;;17.70;3.22;;;;;;;;;;5031823;28;20393;-79
2021/12/02 03:50:54;;;;;;;15.73;2.78;;;;;;;;;;5029902;28;20040;-77
2021/12/02 03:53:20;;;;;;;12.38;2.50;;;;;;;;;;5031902;28;20802;-77
2021/12/02 03:55:47;;;;;;;12.73;2.30;;;;;;;;;;5039364;28;20543;-77
2021/12/02 03:58:13;;;;;;;16.70;2.97;;;;;;;;;;5033475;28;20026;-79
2021/12/02 04:00:39;;;;;;;16.75;3.05;;;;;;;;;;5032021;28;20413;-78
2021/12/02 04:03:06;;;;;;;8.48;2.03;;;;;;;;;;5026079;28;20498;-77
2021/12/02 04:05:32;;;;;;;22.20;3.40;;;;;;;;;;5031441;28;20041;-77
2021/12/02 04:07:58;;;;;;;22.13;3.53;;;;;;;;;;5030677;28;20025;-77
2021/12/02 04:10:25;;;;;;;10.07;2.20;;;;;;;;;;5030941;28;20050;-77
2021/12/02 04:13:09;;;;;;;11.63;1.83;;;;;;;;;;5029130;28;20060;-74
2021/12/02 04:15:40;;;;;;;8.18;1.92;;;;;;;;;;5032817;28;20021;-76
2021/12/02 04:18:07;;;;;;;12.82;1.75;;;;;;;;;;5027997;28;20112;-76
2021/12/02 04:20:33;;;;;;;12.70;2.08;;;;;;;;;;5024905;28;20062;-77
2021/12/02 04:22:59;;;;;;;20.58;2.75;;;;;;;;;;5029604;28;20450;-77
2021/12/02 04:25:26;;;;;;;14.48;2.65;;;;;;;;;;5030165;28;20107;-75
2021/12/02 04:27:53;;;;;;;14.23;2.33;;;;;;;;;;5031673;28;20567;-79
2021/12/02 04:30:20;;;;;;;8.00;1.65;;;;;;;;;;5026007;28;20025;-76
2021/12/02 04:32:47;;;;;;;10.27;1.80;;;;;;;;;;5026943;28;20052;-78
2021/12/02 04:35:14;;;;;;;14.93;1.95;;;;;;;;;;5029813;28;20025;-77
2021/12/02 04:37:40;;;;;;;17.95;2.72;;;;;;;;;;5029033;28;20136;-79
2021/12/02 04:40:07;;;;;;;22.65;2.15;;;;;;;;;;5029700;28;20025;-77
2021/12/02 04:42:34;;;;;;;17.38;1.67;;;;;;;;;;5030321;28;20041;-77
2021/12/02 04:45:00;;;;;;;13.55;2.13;;;;;;;;;;5028727;28;20018;-76
2021/12/02 04:47:26;;;;;;;11.18;2.22;;;;;;;;;;5031774;28;20021;-76
2021/12/02 04:49:52;;;;;;;11.13;2.05;;;;;;;;;;5028484;28;20666;-75
2021/12/02 04:52:19;;;;;;;27.20;2.65;;;;;;;;;;5029076;28;20021;-78
2021/12/02 04:54:45;;;;;;;9.90;2.03;;;;;;;;;;5028504;28;20063;-74
2021/12/02 04:57:11;;;;;;;15.95;2.33;;;;;;;;;;5029539;28;20040;-77
2021/12/02 04:59:37;;;;;;;12.57;2.50;;;;;;;;;;5030764;28;20548;-76
2021/12/02 05:02:04;;;;;;;14.85;2.72;;;;;;;;;;5027807;28;20116;-76
2021/12/02 05:04:30;;;;;;;15.52;2.10;;;;;;;;;;5026298;28;20389;-76
2021/12/02 05:06:56;;;;;;;30.42;3.42;;;;;;;;;;5031503;28;20032;-77
2021/12/02 05:09:22;;;;;;;11.43;2.45;;;;;;;;;;5029605;28;20053;-75
2021/12/02 05:11:48;;;;;;;15.10;2.35;;;;;;;;;;5031556;28;20044;-78
2021/12/02 05:14:14;;;;;;;14.55;3.25;;;;;;;;;;5026993;28;20030;-78
2021/12/02 05:16:41;;;;;;;13.40;1.70;;;;;;;;;;5022597;28;20036;-74
2021/12/02 05:19:07;;;;;;;17.17;2.22;;;;;;;;;;5027292;28;20042;-78
2021/12/02 05:21:33;;;;;;;17.13;2.47;;;;;;;;;;5021869;28;20103;-75
2021/12/02 05:23:59;;;;;;;14.07;2.58;;;;;;;;;;5030082;28;20045;-76
2021/12/02 05:26:26;;;;;;;17.65;2.65;;;;;;;;;;5028785;28;20073;-78
2021/12/02 05:28:53;;;;;;;16.80;2.60;;;;;;;;;;5024966;28;20075;-78
2021/12/02 05:31:19;;;;;;;17.92;2.55;;;;;;;;;;5022810;28;20546;-78
2021/12/02 05:33:45;;;;;;;11.30;1.92;;;;;;;;;;5022162;28;20606;-76
2021/12/02 05:36:12;;;;;;;21.65;2.40;;;;;;;;;;5030077;28;20044;-80
2021/12/02 05:38:39;;;;;;;15.02;2.22;;;;;;;;;;5025096;28;20033;-75
2021/12/02 05:41:05;;;;;;;16.00;1.80;;;;;;;;;;5026269;28;20030;-77
2021/12/02 05:43:31;;;;;;;11.43;1.88;;;;;;;;;;5022589;28;20091;-78
2021/12/02 05:45:57;;;;;;;13.30;2.30;;;;;;;;;;5023870;28;20034;-78
2021/12/02 05:48:24;;;;;;;15.00;2.00;;;;;;;;;;5031274;28;20040;-74
2021/12/02 05:50:50;;;;;;;21.10;2.47;;;;;;;;;;5025917;28;20033;-78
2021/12/02 05:53:17;;;;;;;14.63;1.70;;;;;;;;;;5030952;28;20070;-78
2021/12/02 05:55:43;;;;;;;14.18;1.88;;;;;;;;;;5028558;28;20041;-77
2021/12/02 05:58:13;;;;;;;12.15;2.50;;;;;;;;;;5024232;28;20033;-76
2021/12/02 06:00:41;;;;;;;9.20;2.20;;;;;;;;;;5030379;28;20132;-75
2021/12/02 06:03:07;;;;;;;10.55;1.90;;;;;;;;;;5025266;28;20533;-78
2021/12/02 06:05:34;;;;;;;11.85;2.17;;;;;;;;;;5024235;28;20021;-76
2021/12/02 06:08:03;;;;;;;18.17;2.20;;;;;;;;;;5025139;28;20048;-75
2021/12/02 06:10:29;;;;;;;19.48;2.58;;;;;;;;;;5026599;28;20872;-78
2021/12/02 06:12:56;;;;;;;11.80;2.88;;;;;;;;;;5024785;28;20389;-76
2021/12/02 06:15:22;;;;;;;16.35;3.17;;;;;;;;;;5020276;28;20614;-77
2021/12/02 06:17:49;;;;;;;17.92;2.70;;;;;;;;;;5025319;28;20030;-77
2021/12/02 06:20:19;;;;;;;21.88;2.55;;;;;;;;;;5021602;28;20030;-77
2021/12/02 06:22:46;;;;;;;14.75;2.60;;;;;;;;;;5029150;28;20045;-77
2021/12/02 06:27:39;;;;;;;15.02;3.28;;;;;;;;;;5022629;28;20087;-76
2021/12/02 06:30:05;;;;;;;21.15;2.35;;;;;;;;;;5026451;28;20029;-76
2021/12/02 06:32:31;;;;;;;14.50;2.22;;;;;;;;;;5025939;28;20043;-75
2021/12/02 06:34:58;;;;;;;10.40;2.40;;;;;;;;;;5029320;28;20110;-76
2021/12/02 06:37:24;;;;;;;18.02;1.90;;;;;;;;;;5031185;28;20527;-76
2021/12/02 06:39:50;;;;;;;12.93;2.95;;;;;;;;;;5025665;28;20025;-73
2021/12/02 06:42:16;;;;;;;6.75;1.60;;;;;;;;;;5033503;28;20041;-74
2021/12/02 06:44:43;;;;;;;7.63;1.40;;;;;;;;;;5031494;28;20045;-76
2021/12/02 06:47:09;;;;;;;16.33;2.17;;;;;;;;;;5027188;28;20040;-77
2021/12/02 06:49:36;;;;;;;13.10;2.25;;;;;;;;;;5026286;28;20030;-76
2021/12/02 06:52:04;;;;;;;20.48;3.30;;;;;;;;;;5032129;28;20096;-75
2021/12/02 06:54:30;;;;;;;12.27;2.15;;;;;;;;;;5028880;28;20937;-75
2021/12/02 06:56:56;;;;;;;19.02;2.60;;;;;;;;;;5032526;28;20699;-77
2021/12/02 06:59:22;;;;;;;13.65;2.58;;;;;;;;;;5030045;28;20038;-75
2021/12/02 07:01:49;;;;;;;12.13;2.20;;;;;;;;;;5027241;28;20018;-73
2021/12/02 07:04:15;;;;;;;14.60;2.35;;;;;;;;;;5030419;28;20164;-75
2021/12/02 07:06:43;;;;;;;18.52;2.72;;;;;;;;;;5032997;28;20017;-76
2021/12/02 07:09:09;;;;;;;15.02;2.50;;;;;;;;;;5031680;28;20064;-76
2021/12/02 07:11:35;;;;;;;17.92;4.45;;;;;;;;;;5028217;28;20489;-73
2021/12/02 07:14:08;;;;;;;13.43;2.00;;;;;;;;;;5032370;28;20029;-74
2021/12/02 07:16:35;;;;;;;12.50;2.53;;;;;;;;;;5031980;28;20025;-73
2021/12/02 07:19:08;;;;;;;13.60;2.92;;;;;;;;;;5031410;28;20547;-75
2021/12/02 07:21:37;;;;;;;20.00;2.28;;;;;;;;;;5029948;28;20036;-73
2021/12/02 07:24:03;;;;;;;14.52;2.60;;;;;;;;;;5031986;28;20040;-77
2021/12/02 07:26:29;;;;;;;19.88;2.65;;;;;;;;;;5030467;28;20480;-77
2021/12/02 07:28:56;;;;;;;17.40;2.40;;;;;;;;;;5028612;28;20033;-77
2021/12/02 07:31:23;;;;;;;14.02;2.42;;;;;;;;;;5030836;28;20033;-77
2021/12/02 07:33:53;;;;;;;11.75;2.67;;;;;;;;;;5032780;28;20021;-73
2021/12/02 07:36:19;;;;;;;14.20;2.60;;;;;;;;;;5028699;28;20363;-75
2021/12/02 07:38:46;;;;;;;20.23;4.75;;;;;;;;;;5027583;28;20370;-73
2021/12/02 07:41:13;;;;;;;15.32;3.20;;;;;;;;;;5028266;28;20029;-75
2021/12/02 07:43:40;;;;;;;16.80;3.53;;;;;;;;;;5029671;28;20033;-77
2021/12/02 07:46:06;;;;;;;17.13;3.25;;;;;;;;;;5027588;28;20483;-75
2021/12/02 07:48:32;;;;;;;9.15;2.30;;;;;;;;;;5030780;28;20047;-75
2021/12/02 07:51:01;;;;;;;8.73;2.03;;;;;;;;;;5024660;28;20473;-77
2021/12/02 07:53:28;;;;;;;10.20;1.67;;;;;;;;;;5022295;28;20628;-73
2021/12/02 07:55:55;;;;;;;15.05;2.28;;;;;;;;;;5029223;28;20036;-73
2021/12/02 07:58:22;;;;;;;23.73;3.05;;;;;;;;;;5029103;28;20036;-73
2021/12/02 08:00:49;;;;;;;13.55;2.13;;;;;;;;;;5027622;28;20140;-78
2021/12/02 08:03:16;;;;;;;12.60;3.53;;;;;;;;;;5029668;28;20041;-74
2021/12/02 08:05:43;;;;;;;12.80;1.98;;;;;;;;;;5030461;28;20021;-78
2021/12/02 08:08:10;;;;;;;11.18;1.60;;;;;;;;;;5027953;28;20052;-82
2021/12/02 08:10:36;;;;;;;12.07;2.17;;;;;;;;;;5025179;28;20033;-76
2021/12/02 08:13:04;;;;;;;11.50;2.80;;;;;;;;;;5025628;28;20022;-74
2021/12/02 08:15:30;;;;;;;16.80;2.70;;;;;;;;;;5031595;28;20430;-77
2021/12/02 08:17:57;;;;;;;11.60;2.08;;;;;;;;;;5032093;28;20075;-74
2021/12/02 08:20:24;;;;;;;20.95;2.55;;;;;;;;;;5029726;28;20033;-75
2021/12/02 08:22:51;;;;;;;14.60;2.25;;;;;;;;;;5024973;28;20045;-73
2021/12/02 08:25:17;;;;;;;10.85;2.22;;;;;;;;;;5026125;28;20473;-74
2021/12/02 08:27:44;;;;;;;15.32;2.70;;;;;;;;;;5029619;28;20044;-77
2021/12/02 08:30:11;;;;;;;15.50;2.15;;;;;;;;;;5021427;28;20123;-75
2021/12/02 08:32:41;;;;;;;10.77;1.98;;;;;;;;;;5032490;28;20025;-74
2021/12/02 08:35:07;;;;;;;10.90;2.05;;;;;;;;;;5030191;28;20024;-73
2021/12/02 08:37:37;;;;;;;16.55;1.98;;;;;;;;;;5029467;28;20029;-75
2021/12/02 08:40:04;;;;;;;9.90;2.00;;;;;;;;;;5030119;28;20029;-76
2021/12/02 08:42:34;;;;;;;15.43;2.45;;;;;;;;;;5034441;28;20020;-77
2021/12/02 08:45:00;;;;;;;16.15;2.20;;;;;;;;;;5026791;28;20037;-74
2021/12/02 08:47:28;;;;;;;9.90;2.30;;;;;;;;;;5033688;28;20495;-79
2021/12/02 08:49:55;;;;;;;12.80;2.38;;;;;;;;;;5032805;28;20021;-73
2021/12/02 08:52:22;;;;;;;12.95;2.08;;;;;;;;;;5029999;28;20555;-73
2021/12/02 08:54:49;;;;;;;13.77;1.98;;;;;;;;;;5032466;28;20021;-74
2021/12/02 08:57:17;;;;;;;13.35;2.40;;;;;;;;;;5030882;28;20112;-74
2021/12/02 08:59:44;;;;;;;19.52;2.35;;;;;;;;;;5026938;28;20030;-75
2021/12/02 09:02:10;;;;;;;12.52;2.50;;;;;;;;;;5031473;28;20021;-73
2021/12/02 09:04:36;;;;;;;12.73;2.20;;;;;;;;;;5032169;28;20033;-73
2021/12/02 09:07:03;;;;;;;10.00;1.77;;;;;;;;;;5031568;28;20060;-72
2021/12/02 09:09:29;;;;;;;13.07;2.05;;;;;;;;;;5029215;28;20045;-72
2021/12/02 09:11:57;;;;;;;12.73;2.10;;;;;;;;;;5032074;28;20568;-72
2021/12/02 09:14:23;;;;;;;11.68;2.10;;;;;;;;;;5030461;28;20115;-76
2021/12/02 09:16:50;;;;;;;19.05;2.20;;;;;;;;;;5031253;28;20021;-72
2021/12/02 09:19:17;;;;;;;11.15;2.20;;;;;;;;;;5031626;28;20657;-72
2021/12/02 09:21:43;;;;;;;15.13;2.15;;;;;;;;;;5030293;28;20702;-72
2021/12/02 09:24:11;;;;;;;7.03;1.60;;;;;;;;;;5029431;28;20036;-72
2021/12/02 09:26:38;;;;;;;15.57;2.05;;;;;;;;;;5029662;28;20025;-74
2021/12/02 09:29:04;;;;;;;10.27;1.83;;;;;;;;;;5030423;28;20553;-71
2021/12/02 09:31:31;;;;;;;13.98;2.33;;;;;;;;;;5032890;28;20040;-71
2021/12/02 09:33:57;;;;;;;14.10;1.95;;;;;;;;;;5030817;28;20018;-71
2021/12/02 09:36:23;;;;;;;8.77;1.40;;;;;;;;;;5029569;28;20025;-72
2021/12/02 09:38:50;;;;;;;12.40;2.08;;;;;;;;;;5032633;28;20031;-71
2021/12/02 09:41:16;;;;;;;10.10;1.83;;;;;;;;;;5028366;28;20624;-71
2021/12/02 09:43:43;;;;;;;12.73;1.52;;;;;;;;;;5030809;28;20039;-71
2021/12/02 09:46:10;;;;;;;13.63;2.13;;;;;;;;;;5031279;28;20022;-72
2021/12/02 09:48:36;;;;;;;14.77;2.35;;;;;;;;;;5031212;28;20029;-71
2021/12/02 09:51:16;;;;;;;13.60;1.60;;;;;;;;;;5029408;28;20025;-71
2021/12/02 09:54:06;;;;;;;13.02;1.75;;;;;;;;;;5029970;28;20100;-71
2021/12/02 09:56:35;;;;;;;5.93;1.42;;;;;;;;;;5030377;28;20071;-72
2021/12/02 09:59:09;;;;;;;11.45;1.48;;;;;;;;;;5028502;28;20226;-72
2021/12/02 10:01:49;;;;;;;9.60;1.55;;;;;;;;;;5029412;28;20116;-72
2021/12/02 10:04:15;;;;;;;9.52;1.40;;;;;;;;;;5034634;28;20615;-77
2021/12/02 10:06:44;;;;;;;13.27;2.03;;;;;;;;;;5032217;28;20056;-72
2021/12/02 10:09:21;;;;;;;6.53;1.40;;;;;;;;;;5032184;28;20056;-71
2021/12/02 10:11:58;;;;;;;7.22;1.98;;;;;;;;;;5035607;28;20025;-72
2021/12/02 10:14:32;;;;;;;8.70;1.63;;;;;;;;;;5029877;28;20056;-71
2021/12/02 10:17:09;;;;;;;8.98;1.70;;;;;;;;;;5030063;28;20480;-77
2021/12/02 10:19:36;;;;;;;13.55;1.95;;;;;;;;;;5040115;28;20082;-71
2021/12/02 10:22:11;;;;;;;8.57;1.33;;;;;;;;;;5035873;28;20112;-72
2021/12/02 10:24:44;;;;;;;7.68;1.40;;;;;;;;;;5034330;28;20385;-71
2021/12/02 10:27:11;;;;;;;8.90;1.77;;;;;;;;;;5034112;28;20092;-71
2021/12/02 10:29:38;;;;;;;6.80;1.50;;;;;;;;;;5032198;28;20025;-72
2021/12/02 10:32:10;;;;;;;8.27;2.65;;;;;;;;;;5030340;28;20021;-73
2021/12/02 10:34:55;;;;;;;4.80;1.80;;;;;;;;;;5035822;28;20055;-72
2021/12/02 10:37:23;;;;;;;8.23;2.13;;;;;;;;;;5033705;28;20086;-71
2021/12/02 10:40:09;;;;;;;6.20;1.60;;;;;;;;;;5031726;28;20052;-73
2021/12/02 10:42:38;;;;;;;9.70;1.65;;;;;;;;;;5037960;28;20033;-72
2021/12/02 10:45:06;;;;;;;10.35;1.60;;;;;;;;;;5033802;28;20105;-72
2021/12/02 10:47:33;;;;;;;8.88;1.90;;;;;;;;;;5035072;28;20021;-72
2021/12/02 10:50:01;;;;;;;10.15;2.13;;;;;;;;;;5035007;28;20090;-73
2021/12/02 10:52:29;;;;;;;5.63;1.67;;;;;;;;;;5034594;28;20083;-72
2021/12/02 10:55:01;;;;;;;10.00;2.22;;;;;;;;;;5029556;28;20027;-78
2021/12/02 10:57:28;;;;;;;9.20;1.90;;;;;;;;;;5034334;28;20022;-71
2021/12/02 10:59:55;;;;;;;14.05;1.85;;;;;;;;;;5037021;28;20025;-73
2021/12/02 11:02:22;;;;;;;12.50;2.40;;;;;;;;;;5040291;28;20409;-74
2021/12/02 11:04:49;;;;;;;13.70;1.95;;;;;;;;;;5039973;28;20646;-71
2021/12/02 11:07:20;;;;;;;15.77;2.60;;;;;;;;;;5033823;28;20052;-72
2021/12/02 11:09:48;;;;;;;10.88;1.77;;;;;;;;;;5035464;28;20057;-72
2021/12/02 11:12:19;;;;;;;8.38;1.75;;;;;;;;;;5028730;28;20026;-72
2021/12/02 11:14:54;;;;;;;8.65;1.85;;;;;;;;;;5028911;28;20025;-72
2021/12/02 11:17:21;;;;;;;9.82;2.13;;;;;;;;;;5032325;28;20021;-71
2021/12/02 11:19:49;;;;;;;10.63;2.22;;;;;;;;;;5028023;28;20525;-71
2021/12/02 11:22:17;;;;;;;10.77;1.92;;;;;;;;;;5031875;28;20131;-72
2021/12/02 11:24:43;;;;;;;13.45;2.90;;;;;;;;;;5034283;28;20630;-72
2021/12/02 11:27:15;;;;;;;8.65;1.77;;;;;;;;;;5034742;28;20542;-73
2021/12/02 11:29:41;;;;;;;;;;;;;;;;;;5031455;28;20025;-71
2021/12/02 11:32:22;;;;;;;6.03;1.67;;;;;;;;;;5032465;28;19905;-75
2021/12/02 11:34:48;;;;;;;7.28;1.80;;;;;;;;;;5026188;28;20541;-72
2021/12/02 11:37:15;;;;;;;10.50;1.45;;;;;;;;;;5030515;28;20024;-75
2021/12/02 11:39:41;;;;;;;11.05;2.08;;;;;;;;;;5033554;28;20100;-70
2021/12/02 11:42:07;;;;;;;12.55;2.20;;;;;;;;;;5028728;28;20022;-70
2021/12/02 11:44:34;;;;;;;8.00;2.60;;;;;;;;;;5027212;28;20052;-70
2021/12/02 11:47:00;;;;;;;5.80;1.55;;;;;;;;;;5033458;28;20025;-71
2021/12/02 11:49:26;;;;;;;12.52;1.90;;;;;;;;;;5031720;28;20022;-78
2021/12/02 11:51:52;;;;;;;8.43;2.55;;;;;;;;;;5028354;28;20033;-73
2021/12/02 11:54:18;;;;;;;9.98;2.05;;;;;;;;;;5031916;28;20037;-77
2021/12/02 11:56:45;;;;;;;8.25;1.80;;;;;;;;;;5033053;28;20022;-71
2021/12/02 11:59:11;;;;;;;7.50;1.70;;;;;;;;;;5029269;28;20032;-71
2021/12/02 12:01:39;;;;;;;9.63;1.83;;;;;;;;;;5025795;28;20495;-71
2021/12/02 12:04:09;;;;;;;6.18;1.20;;;;;;;;;;5030092;28;20508;-72
2021/12/02 12:06:38;;;;;;;8.52;1.88;;;;;;;;;;5028641;28;20029;-72
2021/12/02 12:09:16;;;;;;;7.93;1.60;;;;;;;;;;5024140;28;20049;-71
2021/12/02 12:11:46;;;;;;;7.45;1.45;;;;;;;;;;5022938;28;20021;-74
2021/12/02 12:14:16;;;;;;;5.90;1.48;;;;;;;;;;5028834;28;20059;-71
2021/12/02 12:16:47;;;;;;;10.07;1.80;;;;;;;;;;5029294;28;20078;-72
2021/12/02 12:19:30;;;;;;;8.93;1.20;;;;;;;;;;5031384;28;20029;-71
2021/12/02 12:21:56;;;;;;;5.65;1.77;;;;;;;;;;5033838;28;20343;-72
2021/12/02 12:24:38;;;;;;;10.00;1.60;;;;;;;;;;5027573;28;20095;-74
2021/12/02 12:27:11;;;;;;;11.02;1.70;;;;;;;;;;5028164;28;20043;-74
2021/12/02 12:29:38;;;;;;;4.25;1.52;;;;;;;;;;5029185;28;20469;-76
2021/12/02 12:32:08;;;;;;;5.68;1.40;;;;;;;;;;5023968;28;20048;-72
2021/12/02 12:37:23;;;;;;;5.90;2.00;;;;;;;;;;5026847;28;20145;-71
2021/12/02 12:40:08;;;;;;;10.15;2.38;;;;;;;;;;5028407;28;20473;-72
2021/12/02 12:42:36;;;;;;;10.48;1.98;;;;;;;;;;5031800;28;20444;-71
2021/12/02 12:45:03;;;;;;;7.55;1.90;;;;;;;;;;5024634;28;20535;-73
2021/12/02 12:47:42;;;;;;;7.97;1.83;;;;;;;;;;5024600;28;20119;-72
2021/12/02 12:50:24;;;;;;;6.55;1.58;;;;;;;;;;5028890;28;20029;-74
2021/12/02 12:52:54;;;;;;;8.80;1.90;;;;;;;;;;5030479;28;20047;-71
2021/12/02 12:55:21;;;;;;;6.10;1.42;;;;;;;;;;5027876;28;20105;-75
2021/12/02 12:58:06;;;;;;;5.03;1.30;;;;;;;;;;5029106;28;20021;-71
2021/12/02 13:00:36;;;;;;;4.85;1.27;;;;;;;;;;5025911;28;20485;-77
2021/12/02 13:06:03;;;;;;;4.78;1.73;;;;;;;;;;5029729;28;20032;-73
2021/12/02 13:08:35;;;;;;;5.90;1.98;;;;;;;;;;5027760;28;20575;-72
2021/12/02 13:11:01;;;;;;;;;;;;;;;;;;5028403;28;20029;-73
2021/12/02 13:13:30;;;;;;;6.07;2.17;;;;;;;;;;5025958;28;20399;-70
2021/12/02 13:16:19;;;;;;;6.63;2.00;;;;;;;;;;5031630;28;20625;-73
2021/12/02 13:18:59;;;;;;;12.98;2.38;;;;;;;;;;5026160;28;20037;-73
2021/12/02 13:23:56;;;;;;;8.93;2.80;;;;;;;;;;5028053;28;20045;-72
2021/12/02 13:26:23;;;;;;;9.90;2.90;;;;;;;;;;5024532;28;20505;-72
2021/12/02 13:28:51;;;;;;;6.85;1.98;;;;;;;;;;5025353;28;20032;-72
2021/12/02 13:31:18;;;;;;;7.80;2.40;;;;;;;;;;5027842;28;20033;-73
2021/12/02 13:33:50;;;;;;;9.38;2.88;;;;;;;;;;5028742;28;20320;-72
2021/12/02 13:36:17;;;;;;;8.52;2.42;;;;;;;;;;5022665;28;20060;-71
2021/12/02 13:38:57;;;;;;;7.85;2.10;;;;;;;;;;5025975;28;20025;-70
2021/12/02 13:41:23;;;;;;;9.10;2.28;;;;;;;;;;5026616;28;20035;-71
2021/12/02 13:43:55;;;;;;;8.60;1.83;;;;;;;;;;5024080;28;20415;-72
2021/12/02 13:46:31;;;;;;;6.23;2.00;;;;;;;;;;5026086;28;20256;-75
2021/12/02 13:48:59;;;;;;;9.13;2.33;;;;;;;;;;5028440;28;20281;-74
2021/12/02 13:54:22;;;;;;;8.07;1.85;;;;;;;;;;5026488;28;20734;-71
2021/12/02 13:56:48;;;;;;;6.40;1.73;;;;;;;;;;5026273;28;20017;-73
2021/12/02 13:59:16;;;;;;;11.32;1.90;;;;;;;;;;5028788;28;20020;-76
2021/12/02 14:01:53;;;;;;;7.05;1.65;;;;;;;;;;5026777;28;20104;-74
2021/12/02 14:04:19;;;;;;;7.47;1.88;;;;;;;;;;5024793;28;20051;-75
2021/12/02 14:06:45;;;;;;;6.72;1.48;;;;;;;;;;5027907;28;20803;-71
2021/12/02 14:09:16;;;;;;;5.28;1.55;;;;;;;;;;5028198;28;20738;-72
2021/12/02 14:11:43;;;;;;;6.03;1.52;;;;;;;;;;5027325;28;20041;-75
2021/12/02 14:14:15;;;;;;;6.55;1.90;;;;;;;;;;5031906;28;20405;-70
2021/12/02 14:16:42;;;;;;;12.20;1.90;;;;;;;;;;5028139;28;20542;-70
2021/12/02 14:19:09;;;;;;;8.40;1.70;;;;;;;;;;5026821;28;20075;-71
2021/12/02 14:21:36;;;;;;;8.15;1.83;;;;;;;;;;5029969;28;20436;-70
2021/12/02 14:24:02;;;;;;;6.68;2.15;;;;;;;;;;5026189;28;20258;-71
2021/12/02 14:26:29;;;;;;;14.93;1.92;;;;;;;;;;5026014;28;20112;-72
2021/12/02 14:28:56;;;;;;;5.55;1.65;;;;;;;;;;5022171;28;20105;-73
2021/12/02 14:31:25;;;;;;;5.30;1.55;;;;;;;;;;5030189;28;20030;-71
2021/12/02 14:33:53;;;;;;;9.40;1.85;;;;;;;;;;5033162;28;20068;-71
2021/12/02 14:36:20;;;;;;;9.02;1.95;;;;;;;;;;5028421;28;20025;-71
2021/12/02 14:38:50;;;;;;;6.15;1.65;;;;;;;;;;5030397;28;20017;-71
2021/12/02 14:41:16;;;;;;;8.02;1.80;;;;;;;;;;5030475;28;20029;-71
2021/12/02 14:43:48;;;;;;;9.45;1.55;;;;;;;;;;5029348;28;20048;-72
2021/12/02 14:46:23;;;;;;;5.43;1.55;;;;;;;;;;5029841;28;20022;-72
2021/12/02 14:49:30;;;;;;;7.20;1.58;;;;;;;;;;5029979;28;20029;-71
2021/12/02 14:51:56;;;;;;;6.20;1.55;;;;;;;;;;5034979;28;20032;-71
2021/12/02 14:54:33;;;;;;;9.95;1.80;;;;;;;;;;5035141;28;20374;-72
2021/12/02 14:57:01;;;;;;;6.80;1.58;;;;;;;;;;5035706;28;20053;-72
2021/12/02 14:59:28;;;;;;;5.15;1.65;;;;;;;;;;5033909;28;20021;-71
2021/12/02 15:01:57;;;;;;;7.93;2.33;;;;;;;;;;5033785;28;20095;-72
2021/12/02 15:04:24;;;;;;;9.38;3.35;;;;;;;;;;5034295;28;20086;-71
2021/12/02 15:06:50;;;;;;;12.85;3.95;;;;;;;;;;5032723;28;20026;-71
2021/12/02 15:09:30;;;;;;;13.15;3.75;;;;;;;;;;5032869;28;20045;-71